Time;durP1;ratioP1;P1;durP2;ratioP2;P2;SDS_P1;SDS_P2;PMS_P1;PMS_P2;Temp;Humidity;BMP_temperature;BMP_pressure;BME280_temperature;BME280_humidity;BME280_pressure;Samples;Min_cycle;Max_cycle;Signal;HPM_P1;HPM_P2
2023/09/24 00:00:25;;;;;;;2.10;0.90;;;16.90;99.90;;;;;;5028792;28;20235;-73
2023/09/24 00:02:54;;;;;;;0.90;0.80;;;16.60;99.90;;;;;;5033050;28;20685;-73
2023/09/24 00:05:22;;;;;;;1.75;0.82;;;16.60;99.90;;;;;;5022569;28;20196;-70
2023/09/24 00:07:50;;;;;;;1.20;1.10;;;16.60;99.90;;;;;;5022953;28;20234;-69
2023/09/24 00:10:20;;;;;;;0.80;0.70;;;16.70;99.90;;;;;;5028095;28;20212;-71
2023/09/24 00:12:49;;;;;;;1.35;1.17;;;16.50;99.90;;;;;;5033721;28;20208;-69
2023/09/24 00:15:18;;;;;;;0.90;0.75;;;16.70;99.90;;;;;;5035457;28;20253;-69
2023/09/24 00:17:46;;;;;;;1.20;0.80;;;16.90;99.90;;;;;;5040882;28;20200;-69
2023/09/24 00:20:16;;;;;;;0.80;0.75;;;16.70;99.90;;;;;;5038987;28;20260;-69
2023/09/24 00:22:47;;;;;;;1.77;1.02;;;16.50;99.90;;;;;;5038583;28;20673;-69
2023/09/24 00:25:15;;;;;;;1.10;1.00;;;16.30;99.90;;;;;;5044349;28;20204;-69
2023/09/24 00:27:43;;;;;;;2.65;1.10;;;16.40;99.90;;;;;;5028435;28;20222;-69
2023/09/24 00:30:13;;;;;;;1.15;1.05;;;16.40;99.90;;;;;;5042408;28;20719;-70
2023/09/24 00:32:42;;;;;;;1.70;0.95;;;16.40;99.90;;;;;;5040663;28;20450;-72
2023/09/24 00:35:11;;;;;;;1.73;1.10;;;16.20;99.90;;;;;;5031995;28;20200;-70
2023/09/24 00:37:39;;;;;;;1.17;0.70;;;16.00;99.90;;;;;;5038293;28;20284;-71
2023/09/24 00:40:11;;;;;;;0.80;0.80;;;16.10;99.90;;;;;;5028895;28;20230;-71
2023/09/24 00:42:39;;;;;;;2.03;0.70;;;16.40;99.90;;;;;;5033413;28;20555;-69
2023/09/24 00:45:11;;;;;;;1.13;0.90;;;16.50;99.90;;;;;;5030444;28;20197;-71
2023/09/24 00:47:43;;;;;;;1.25;0.90;;;16.40;99.90;;;;;;5022828;28;20655;-71
2023/09/24 00:50:13;;;;;;;1.27;0.82;;;16.60;99.90;;;;;;5032894;28;20244;-70
2023/09/24 00:52:43;;;;;;;2.17;0.80;;;16.70;99.90;;;;;;5020485;28;20199;-70
2023/09/24 00:55:13;;;;;;;1.10;1.00;;;16.50;99.90;;;;;;5032364;28;20205;-70
2023/09/24 00:57:42;;;;;;;1.02;0.95;;;16.70;99.90;;;;;;5038343;28;20215;-71
2023/09/24 01:00:15;;;;;;;4.03;0.80;;;16.80;99.90;;;;;;5032561;28;20244;-72
2023/09/24 01:02:44;;;;;;;1.40;1.30;;;16.90;99.90;;;;;;5019871;28;20201;-69
2023/09/24 01:05:14;;;;;;;1.35;1.02;;;16.50;99.90;;;;;;5038501;28;20204;-72
2023/09/24 01:07:42;;;;;;;0.75;0.75;;;16.30;99.90;;;;;;5022177;28;20197;-70
2023/09/24 01:10:11;;;;;;;1.42;0.90;;;16.30;99.90;;;;;;5034956;28;20334;-70
2023/09/24 01:12:40;;;;;;;1.00;0.90;;;16.10;99.90;;;;;;5026982;28;20208;-72
2023/09/24 01:15:13;;;;;;;2.72;0.90;;;16.10;99.90;;;;;;5033658;28;20204;-72
2023/09/24 01:17:41;;;;;;;1.25;1.10;;;16.20;99.90;;;;;;5025290;28;20200;-71
2023/09/24 01:20:13;;;;;;;0.80;0.68;;;16.20;99.90;;;;;;5035291;28;20274;-72
2023/09/24 01:22:42;;;;;;;2.20;0.70;;;16.30;99.90;;;;;;5026449;28;20292;-70
2023/09/24 01:25:11;;;;;;;1.05;0.95;;;16.30;99.90;;;;;;5040701;28;20201;-70
2023/09/24 01:27:39;;;;;;;1.40;0.80;;;16.50;99.90;;;;;;5042157;28;20932;-70
2023/09/24 01:30:08;;;;;;;1.42;1.15;;;16.40;99.90;;;;;;5042292;28;20623;-71
2023/09/24 01:32:37;;;;;;;1.77;0.63;;;16.20;99.90;;;;;;5042094;28;20669;-71
2023/09/24 01:35:06;;;;;;;1.85;1.13;;;16.20;99.90;;;;;;5026601;28;20622;-70
2023/09/24 01:37:34;;;;;;;1.55;0.80;;;16.00;99.90;;;;;;5042541;28;20588;-71
2023/09/24 01:40:12;;;;;;;1.00;0.80;;;16.10;99.90;;;;;;5033739;28;20217;-72
2023/09/24 01:42:40;;;;;;;0.80;0.70;;;16.10;99.90;;;;;;5030682;28;20201;-69
2023/09/24 01:45:10;;;;;;;1.10;1.00;;;16.10;99.90;;;;;;5033419;28;20296;-71
2023/09/24 01:47:38;;;;;;;2.78;1.45;;;15.90;99.90;;;;;;5042021;28;20384;-72
2023/09/24 01:50:08;;;;;;;0.93;0.70;;;15.90;99.90;;;;;;5044294;28;20213;-73
2023/09/24 01:52:36;;;;;;;1.35;1.25;;;16.10;99.90;;;;;;5025471;28;20565;-71
2023/09/24 01:55:06;;;;;;;0.90;0.60;;;16.30;99.90;;;;;;5017268;28;20195;-71
2023/09/24 01:57:34;;;;;;;1.25;0.80;;;16.10;99.90;;;;;;5042012;28;20279;-73
2023/09/24 02:00:21;;;;;;;0.85;0.80;;;16.10;99.90;;;;;;5025010;28;20286;-74
2023/09/24 02:02:50;;;;;;;1.92;1.20;;;16.00;99.90;;;;;;5024747;28;20211;-73
2023/09/24 02:05:19;;;;;;;3.10;0.90;;;16.00;99.90;;;;;;5041383;28;20200;-72
2023/09/24 02:07:48;;;;;;;0.60;0.60;;;15.90;99.90;;;;;;5042187;28;20200;-72
2023/09/24 02:10:18;;;;;;;0.88;0.70;;;15.90;99.90;;;;;;5044840;28;20220;-73
2023/09/24 02:12:47;;;;;;;2.35;1.00;;;16.00;99.90;;;;;;5035229;28;20193;-73
2023/09/24 02:15:18;;;;;;;0.90;0.73;;;16.00;99.90;;;;;;5037886;28;20200;-73
2023/09/24 02:17:48;;;;;;;1.55;0.80;;;15.90;99.90;;;;;;5044687;28;20663;-71
2023/09/24 02:20:25;;;;;;;2.08;0.85;;;16.00;99.90;;;;;;5039373;28;20208;-70
2023/09/24 02:22:57;;;;;;;3.72;0.80;;;16.00;99.90;;;;;;5022998;28;20196;-72
2023/09/24 02:25:28;;;;;;;1.95;0.70;;;16.10;99.90;;;;;;5034254;28;20196;-72
2023/09/24 02:27:57;;;;;;;3.58;1.58;;;16.10;99.90;;;;;;5041838;28;20265;-72
2023/09/24 02:30:28;;;;;;;2.25;1.20;;;16.10;99.90;;;;;;5024632;28;20604;-73
2023/09/24 02:33:00;;;;;;;1.23;0.90;;;15.90;99.90;;;;;;5027319;28;20219;-73
2023/09/24 02:35:28;;;;;;;3.00;2.80;;;15.90;99.90;;;;;;5030547;28;20202;-73
2023/09/24 02:37:56;;;;;;;3.00;1.52;;;15.80;99.90;;;;;;5031480;28;20727;-69
2023/09/24 02:40:26;;;;;;;3.35;1.08;;;15.50;99.90;;;;;;5033015;28;20227;-71
2023/09/24 02:42:57;;;;;;;2.50;1.90;;;15.40;99.90;;;;;;5045787;28;20290;-71
2023/09/24 02:45:27;;;;;;;1.13;1.02;;;15.30;99.90;;;;;;5024195;28;20211;-71
2023/09/24 02:47:55;;;;;;;2.13;1.92;;;15.10;99.90;;;;;;5038357;28;20717;-71
2023/09/24 02:50:25;;;;;;;1.48;1.38;;;15.10;99.90;;;;;;5027001;28;20217;-71
2023/09/24 02:52:55;;;;;;;1.65;1.30;;;14.90;99.90;;;;;;5038420;28;20215;-72
2023/09/24 02:55:25;;;;;;;1.45;1.30;;;15.00;99.90;;;;;;5022772;28;20678;-72
2023/09/24 02:57:53;;;;;;;1.50;1.20;;;15.00;99.90;;;;;;5042476;28;20224;-72
2023/09/24 03:00:32;;;;;;;1.45;1.25;;;15.00;99.90;;;;;;5034547;28;20691;-72
2023/09/24 03:03:02;;;;;;;1.17;0.90;;;15.10;99.90;;;;;;5023741;28;20563;-73
2023/09/24 03:05:31;;;;;;;1.50;1.20;;;14.80;99.90;;;;;;5040284;28;20287;-73
2023/09/24 03:08:02;;;;;;;1.98;0.90;;;14.80;99.90;;;;;;5023873;28;20240;-72
2023/09/24 03:10:32;;;;;;;0.90;0.80;;;15.00;99.90;;;;;;5039064;28;20281;-70
2023/09/24 03:13:02;;;;;;;3.28;1.23;;;14.80;99.90;;;;;;5036130;28;20210;-72
2023/09/24 03:15:31;;;;;;;1.20;1.10;;;15.00;99.90;;;;;;5038579;28;20254;-72
2023/09/24 03:17:59;;;;;;;2.17;0.95;;;15.10;99.90;;;;;;5032405;28;20567;-72
2023/09/24 03:20:29;;;;;;;1.10;0.80;;;15.30;99.90;;;;;;5024987;28;20638;-71
2023/09/24 03:23:02;;;;;;;0.75;0.73;;;15.30;99.90;;;;;;5039357;28;20218;-70
2023/09/24 03:25:30;;;;;;;0.90;0.85;;;15.10;99.90;;;;;;5023400;28;20321;-72
2023/09/24 03:28:00;;;;;;;0.90;0.70;;;14.90;99.90;;;;;;5042458;28;20201;-71
2023/09/24 03:30:28;;;;;;;1.77;0.73;;;14.90;99.90;;;;;;5043616;28;20236;-71
2023/09/24 03:32:58;;;;;;;0.73;0.73;;;15.10;99.90;;;;;;5021800;28;20200;-72
2023/09/24 03:35:28;;;;;;;0.93;0.82;;;15.30;99.90;;;;;;5034007;28;20196;-71
2023/09/24 03:37:57;;;;;;;0.82;0.77;;;14.90;99.90;;;;;;5025705;28;20291;-71
2023/09/24 03:40:27;;;;;;;1.20;0.77;;;14.80;99.90;;;;;;5043262;28;20219;-71
2023/09/24 03:42:55;;;;;;;3.30;0.98;;;14.70;99.90;;;;;;5024331;28;20668;-70
2023/09/24 03:45:25;;;;;;;1.15;0.93;;;14.70;99.90;;;;;;5031196;28;20200;-71
2023/09/24 03:47:54;;;;;;;1.00;0.90;;;14.50;99.90;;;;;;5041150;28;20203;-71
2023/09/24 03:50:24;;;;;;;1.17;0.90;;;14.40;99.90;;;;;;5031283;28;20217;-73
2023/09/24 03:52:53;;;;;;;2.92;0.60;;;14.50;99.90;;;;;;5039316;28;20192;-72
2023/09/24 03:55:21;;;;;;;1.17;0.80;;;14.60;99.90;;;;;;5036975;28;20630;-74
2023/09/24 03:57:49;;;;;;;0.80;0.68;;;14.60;99.90;;;;;;5024237;28;20593;-72
2023/09/24 04:00:18;;;;;;;0.70;0.50;;;14.50;99.90;;;;;;5032279;28;20240;-73
2023/09/24 04:02:49;;;;;;;3.33;0.70;;;14.60;99.90;;;;;;5018579;28;20205;-73
2023/09/24 04:05:21;;;;;;;0.77;0.70;;;14.60;99.90;;;;;;5038810;28;20204;-74
2023/09/24 04:07:53;;;;;;;1.05;0.75;;;14.80;99.90;;;;;;5024198;28;20219;-72
2023/09/24 04:10:22;;;;;;;1.33;0.70;;;14.80;99.90;;;;;;5043487;28;20212;-72
2023/09/24 04:12:51;;;;;;;1.38;0.80;;;14.90;99.90;;;;;;5022951;28;20694;-71
2023/09/24 04:15:21;;;;;;;1.20;0.77;;;14.80;99.90;;;;;;5038868;28;20283;-72
2023/09/24 04:17:51;;;;;;;0.63;0.50;;;14.70;99.90;;;;;;5024029;28;20666;-73
2023/09/24 04:20:20;;;;;;;1.00;0.70;;;14.70;99.90;;;;;;5042373;28;20247;-72
2023/09/24 04:22:49;;;;;;;1.10;0.77;;;14.60;99.90;;;;;;5025080;28;20201;-72
2023/09/24 04:25:21;;;;;;;0.90;0.70;;;14.40;99.90;;;;;;5032140;28;20199;-71
2023/09/24 04:27:49;;;;;;;0.75;0.65;;;14.70;99.90;;;;;;5037981;28;20200;-72
2023/09/24 04:30:17;;;;;;;0.85;0.60;;;14.60;99.90;;;;;;5024264;28;20247;-72
2023/09/24 04:32:47;;;;;;;1.17;0.63;;;14.50;99.90;;;;;;5022357;28;20201;-71
2023/09/24 04:35:19;;;;;;;0.75;0.57;;;14.70;99.90;;;;;;5038832;28;20212;-71
2023/09/24 04:37:47;;;;;;;0.93;0.85;;;14.60;99.90;;;;;;5022484;28;20238;-70
2023/09/24 04:40:15;;;;;;;1.30;0.60;;;14.50;99.90;;;;;;5034576;28;20298;-71
2023/09/24 04:42:45;;;;;;;0.70;0.70;;;14.50;99.90;;;;;;5032028;28;20199;-70
2023/09/24 04:45:14;;;;;;;1.10;0.88;;;14.60;99.90;;;;;;5023406;28;20227;-71
2023/09/24 04:47:43;;;;;;;1.00;0.70;;;14.60;99.90;;;;;;5034675;28;20207;-71
2023/09/24 04:50:12;;;;;;;0.60;0.60;;;14.30;99.90;;;;;;5038951;28;20306;-71
2023/09/24 04:52:44;;;;;;;3.65;0.80;;;14.20;99.90;;;;;;5046422;28;20196;-68
2023/09/24 04:55:13;;;;;;;1.10;0.77;;;14.20;99.90;;;;;;5027207;28;20197;-73
2023/09/24 04:57:44;;;;;;;1.30;0.82;;;14.50;99.90;;;;;;5033614;28;20196;-73
2023/09/24 05:00:14;;;;;;;0.90;0.90;;;14.40;99.90;;;;;;5035156;28;20224;-72
2023/09/24 05:02:43;;;;;;;0.90;0.70;;;14.50;99.90;;;;;;5042556;28;20235;-70
2023/09/24 05:05:11;;;;;;;0.70;0.60;;;14.40;99.90;;;;;;5033884;28;20201;-72
2023/09/24 05:07:40;;;;;;;0.85;0.60;;;14.30;99.90;;;;;;5026474;28;20207;-69
2023/09/24 05:10:09;;;;;;;1.45;0.80;;;14.10;99.90;;;;;;5031733;28;20300;-72
2023/09/24 05:12:37;;;;;;;1.00;0.80;;;14.00;99.90;;;;;;5029188;28;20877;-71
2023/09/24 05:15:08;;;;;;;1.23;0.93;;;14.50;99.90;;;;;;5033537;28;20279;-72
2023/09/24 05:17:36;;;;;;;1.02;0.70;;;14.40;99.90;;;;;;5035085;28;20290;-72
2023/09/24 05:20:07;;;;;;;1.02;0.80;;;14.40;99.90;;;;;;5034256;28;20575;-71
2023/09/24 05:22:35;;;;;;;1.25;0.93;;;14.30;99.90;;;;;;5033714;28;20219;-71
2023/09/24 05:25:04;;;;;;;0.90;0.70;;;14.40;99.90;;;;;;5034893;28;20254;-70
2023/09/24 05:27:33;;;;;;;1.30;0.75;;;14.30;99.90;;;;;;5020150;28;20224;-71
2023/09/24 05:30:02;;;;;;;1.00;0.70;;;14.20;99.90;;;;;;5038981;28;20633;-73
2023/09/24 05:32:33;;;;;;;0.80;0.65;;;14.20;99.90;;;;;;5033964;28;20200;-69
2023/09/24 05:35:02;;;;;;;0.73;0.60;;;14.40;99.90;;;;;;5042716;28;20214;-72
2023/09/24 05:37:29;;;;;;;1.13;0.70;;;14.20;99.90;;;;;;5046495;28;20207;-72
2023/09/24 05:39:58;;;;;;;1.35;0.70;;;14.20;99.90;;;;;;5043771;28;20236;-73
2023/09/24 05:42:26;;;;;;;1.10;0.85;;;14.10;99.90;;;;;;5033745;28;20252;-69
2023/09/24 05:44:55;;;;;;;1.33;0.70;;;13.80;99.90;;;;;;5041015;28;20204;-72
2023/09/24 05:47:26;;;;;;;0.80;0.55;;;13.80;99.90;;;;;;5047328;28;20207;-72
2023/09/24 05:49:55;;;;;;;0.90;0.70;;;13.90;99.90;;;;;;5034876;28;20228;-72
2023/09/24 05:52:23;;;;;;;0.73;0.65;;;14.10;99.90;;;;;;5041976;28;20193;-73
2023/09/24 05:54:52;;;;;;;1.92;0.80;;;14.00;99.90;;;;;;5034013;28;20219;-73
2023/09/24 05:57:20;;;;;;;0.85;0.75;;;14.00;99.90;;;;;;5033035;28;20240;-73
2023/09/24 05:59:49;;;;;;;4.88;0.88;;;14.00;99.90;;;;;;5032655;28;20232;-71
2023/09/24 06:02:17;;;;;;;0.85;0.68;;;14.20;99.90;;;;;;5031591;28;20212;-74
2023/09/24 06:04:45;;;;;;;1.20;0.80;;;14.20;99.90;;;;;;5035206;28;20209;-71
2023/09/24 06:07:14;;;;;;;2.85;0.70;;;14.50;99.90;;;;;;5033076;28;20278;-73
2023/09/24 06:09:42;;;;;;;2.35;1.10;;;14.70;99.90;;;;;;5028742;28;20311;-70
2023/09/24 06:12:10;;;;;;;1.50;1.02;;;14.70;99.90;;;;;;5032349;28;20205;-73
2023/09/24 06:14:39;;;;;;;2.30;1.02;;;15.10;99.90;;;;;;5038346;28;20207;-72
2023/09/24 06:17:07;;;;;;;1.00;0.90;;;15.40;99.90;;;;;;5030743;28;20607;-73
2023/09/24 06:19:35;;;;;;;0.88;0.80;;;15.30;99.90;;;;;;5021611;28;20219;-73
2023/09/24 06:22:03;;;;;;;2.40;1.10;;;15.00;99.90;;;;;;5020281;28;20213;-74
2023/09/24 06:24:32;;;;;;;1.58;1.00;;;14.90;99.90;;;;;;5021237;28;20213;-73
2023/09/24 06:27:00;;;;;;;2.22;1.25;;;14.70;99.90;;;;;;5020400;28;20705;-76
2023/09/24 06:29:28;;;;;;;11.43;5.82;;;14.50;99.90;;;;;;5019171;28;20234;-74
2023/09/24 06:31:56;;;;;;;16.88;9.98;;;14.50;99.90;;;;;;5021860;28;20236;-71
2023/09/24 06:34:26;;;;;;;10.20;5.53;;;14.50;99.90;;;;;;5021891;28;20211;-71
2023/09/24 06:36:54;;;;;;;13.10;6.97;;;14.40;99.90;;;;;;5021071;28;20212;-71
2023/09/24 06:39:22;;;;;;;4.88;3.08;;;14.10;99.90;;;;;;5017282;28;20220;-73
2023/09/24 06:41:51;;;;;;;2.47;1.38;;;13.70;99.90;;;;;;5020469;28;20284;-72
2023/09/24 06:44:22;;;;;;;2.58;1.65;;;13.40;99.90;;;;;;5020781;28;20291;-71
2023/09/24 06:46:54;;;;;;;4.93;3.10;;;13.10;99.90;;;;;;5021173;28;20216;-71
2023/09/24 06:49:22;;;;;;;6.13;2.90;;;13.00;99.90;;;;;;5017471;28;20281;-74
2023/09/24 06:51:51;;;;;;;2.45;1.58;;;13.00;99.90;;;;;;5020496;28;20212;-72
2023/09/24 06:54:19;;;;;;;2.85;2.25;;;12.80;99.90;;;;;;5021797;28;20208;-72
2023/09/24 06:56:47;;;;;;;2.88;1.77;;;12.50;99.90;;;;;;5020559;28;20734;-71
2023/09/24 06:59:17;;;;;;;4.20;2.35;;;12.40;99.90;;;;;;5016420;28;20239;-71
2023/09/24 07:01:45;;;;;;;3.55;2.65;;;12.30;99.90;;;;;;5020359;28;20219;-72
2023/09/24 07:04:13;;;;;;;1.70;1.60;;;12.50;99.90;;;;;;5020395;28;20251;-72
2023/09/24 07:06:41;;;;;;;5.68;3.28;;;12.70;99.90;;;;;;5020237;28;20214;-71
2023/09/24 07:09:09;;;;;;;3.10;2.83;;;13.00;99.90;;;;;;5015276;28;20212;-73
2023/09/24 07:11:38;;;;;;;2.78;2.38;;;13.00;99.90;;;;;;5019699;28;20259;-72
2023/09/24 07:14:06;;;;;;;2.80;2.42;;;13.10;99.90;;;;;;5019897;28;20216;-74
2023/09/24 07:16:36;;;;;;;2.70;2.50;;;13.20;99.90;;;;;;5019619;28;20200;-72
2023/09/24 07:19:04;;;;;;;3.00;2.22;;;13.30;99.90;;;;;;5016921;28;20712;-72
2023/09/24 07:21:33;;;;;;;2.58;2.13;;;13.40;99.90;;;;;;5019310;28;20208;-71
2023/09/24 07:24:05;;;;;;;4.68;2.55;;;13.40;99.90;;;;;;5020062;28;20575;-71
2023/09/24 07:26:33;;;;;;;2.45;2.13;;;13.50;99.90;;;;;;5020500;28;20205;-72
2023/09/24 07:29:01;;;;;;;4.43;2.40;;;13.40;99.90;;;;;;5016548;28;20281;-73
2023/09/24 07:31:30;;;;;;;2.53;2.30;;;13.60;99.90;;;;;;5019933;28;20212;-73
2023/09/24 07:34:01;;;;;;;2.75;2.35;;;13.80;99.90;;;;;;5019079;28;20620;-71
2023/09/24 07:36:31;;;;;;;4.78;2.22;;;13.60;99.90;;;;;;5019555;28;20296;-74
2023/09/24 07:39:12;;;;;;;2.67;2.10;;;13.40;99.90;;;;;;5014425;28;20216;-73
2023/09/24 07:41:40;;;;;;;2.50;2.30;;;13.30;99.90;;;;;;5019357;28;20295;-73
2023/09/24 07:44:08;;;;;;;3.55;2.88;;;13.40;99.90;;;;;;5019826;28;20219;-76
2023/09/24 07:46:36;;;;;;;3.00;2.22;;;13.50;99.90;;;;;;5019213;28;20211;-74
2023/09/24 07:49:06;;;;;;;3.85;2.00;;;13.70;99.90;;;;;;5015593;28;20613;-72
2023/09/24 07:51:34;;;;;;;3.08;2.60;;;14.00;99.90;;;;;;5019950;28;20228;-73
2023/09/24 07:54:03;;;;;;;2.78;2.40;;;14.90;99.90;;;;;;5019145;28;20216;-75
2023/09/24 07:56:31;;;;;;;2.90;1.80;;;15.10;99.90;;;;;;5019416;28;20769;-74
2023/09/24 07:59:00;;;;;;;2.78;2.00;;;15.50;99.90;;;;;;5015480;28;20667;-72
2023/09/24 08:01:28;;;;;;;2.15;1.80;;;15.70;99.90;;;;;;5018912;28;20236;-74
2023/09/24 08:03:57;;;;;;;2.72;2.42;;;15.90;99.90;;;;;;5018608;28;20301;-74
2023/09/24 08:06:28;;;;;;;2.08;1.63;;;16.20;99.90;;;;;;5019719;28;20213;-73
2023/09/24 08:08:56;;;;;;;2.45;1.42;;;16.30;99.90;;;;;;5014951;28;20221;-71
2023/09/24 08:11:40;;;;;;;3.33;2.10;;;16.40;99.90;;;;;;5018785;28;20434;-73
2023/09/24 08:14:08;;;;;;;1.30;1.20;;;16.50;99.90;;;;;;5018470;28;20227;-73
2023/09/24 08:16:36;;;;;;;4.30;1.75;;;16.60;99.90;;;;;;5018127;28;20208;-72
2023/09/24 08:19:05;;;;;;;2.45;2.25;;;16.60;99.90;;;;;;5015269;28;20682;-71
2023/09/24 08:21:34;;;;;;;2.38;2.15;;;16.60;99.90;;;;;;5019241;28;20214;-71
2023/09/24 08:24:02;;;;;;;2.72;2.15;;;16.80;99.90;;;;;;5018937;28;20228;-73
2023/09/24 08:26:31;;;;;;;2.35;2.13;;;16.80;99.90;;;;;;5019437;28;20220;-76
2023/09/24 08:29:01;;;;;;;3.10;2.85;;;16.70;99.90;;;;;;5015329;28;20686;-72
2023/09/24 08:31:29;;;;;;;4.38;3.25;;;16.80;99.90;;;;;;5019459;28;20212;-72
2023/09/24 08:33:57;;;;;;;2.95;2.42;;;16.90;99.90;;;;;;5019103;28;20201;-74
2023/09/24 08:36:25;;;;;;;4.50;3.00;;;17.10;99.90;;;;;;5019056;28;20215;-72
2023/09/24 08:38:54;;;;;;;5.70;2.28;;;17.20;99.90;;;;;;5015499;28;20220;-73
2023/09/24 08:41:22;;;;;;;2.72;2.45;;;17.60;99.90;;;;;;5019829;28;20232;-73
2023/09/24 08:43:52;;;;;;;3.40;2.67;;;17.70;99.90;;;;;;5018132;28;20851;-72
2023/09/24 08:46:20;;;;;;;3.10;2.10;;;17.90;99.90;;;;;;5018860;28;20635;-72
2023/09/24 08:48:49;;;;;;;3.28;1.80;;;18.00;99.90;;;;;;5015124;28;20220;-72
2023/09/24 08:51:18;;;;;;;3.08;1.88;;;18.10;99.90;;;;;;5019657;28;21360;-72
2023/09/24 08:53:46;;;;;;;2.28;2.08;;;18.20;99.90;;;;;;5018963;28;20279;-72
2023/09/24 08:56:20;;;;;;;3.97;1.92;;;18.40;99.90;;;;;;5018886;28;20771;-72
2023/09/24 08:58:48;;;;;;;5.20;1.77;;;18.70;99.90;;;;;;5015573;28;20213;-74
2023/09/24 09:01:16;;;;;;;3.17;1.30;;;18.70;99.90;;;;;;5018542;28;20251;-73
2023/09/24 09:03:44;;;;;;;2.00;1.90;;;19.00;99.90;;;;;;5018313;28;20228;-73
2023/09/24 09:06:31;;;;;;;2.10;1.50;;;19.20;99.90;;;;;;5018550;28;20270;-72
2023/09/24 09:09:00;;;;;;;2.28;1.60;;;19.30;99.90;;;;;;5015684;28;20251;-73
2023/09/24 09:11:40;;;;;;;1.73;1.52;;;19.40;99.90;;;;;;5018708;28;20291;-75
2023/09/24 09:14:09;;;;;;;10.82;6.53;;;19.50;99.90;;;;;;5018063;28;20205;-75
2023/09/24 09:16:57;;;;;;;2.28;1.70;;;19.60;99.90;;;;;;5018234;28;20197;-72
2023/09/24 09:19:26;;;;;;;1.65;1.55;;;19.60;99.90;;;;;;5014430;28;20232;-72
2023/09/24 09:21:54;;;;;;;4.07;1.65;;;19.80;99.90;;;;;;5018909;28;20212;-73
2023/09/24 09:24:24;;;;;;;3.45;1.85;;;19.90;99.90;;;;;;5018141;28;20243;-74
2023/09/24 09:26:57;;;;;;;1.40;1.30;;;20.20;99.90;;;;;;5018440;28;20220;-74
2023/09/24 09:29:27;;;;;;;2.72;1.40;;;20.20;99.90;;;;;;5015389;28;20252;-75
2023/09/24 09:31:56;;;;;;;1.50;1.40;;;20.40;99.90;;;;;;5019209;28;20215;-74
2023/09/24 09:34:29;;;;;;;2.75;1.88;;;20.30;99.90;;;;;;5022002;28;20220;-73
2023/09/24 09:37:16;;;;;;;2.03;1.80;;;20.40;99.90;;;;;;5022018;28;20290;-72
2023/09/24 09:39:44;;;;;;;1.60;1.50;;;20.50;99.90;;;;;;5018893;28;20232;-73
2023/09/24 09:42:20;;;;;;;2.63;1.70;;;20.90;99.90;;;;;;5019522;28;20212;-70
2023/09/24 09:44:51;;;;;;;2.70;1.25;;;21.00;99.90;;;;;;5020050;28;20228;-68
2023/09/24 09:47:22;;;;;;;3.05;1.30;;;21.00;99.90;;;;;;5020853;28;20235;-68
2023/09/24 09:49:58;;;;;;;1.20;1.10;;;20.80;99.90;;;;;;5017954;28;20777;-67
2023/09/24 09:52:32;;;;;;;3.67;1.45;;;21.10;99.90;;;;;;5021372;28;20240;-67
2023/09/24 09:55:04;;;;;;;1.25;1.08;;;21.40;99.90;;;;;;5021113;28;20277;-67
2023/09/24 09:57:34;;;;;;;1.00;0.90;;;21.70;99.90;;;;;;5019883;28;20200;-67
2023/09/24 10:00:05;;;;;;;2.10;1.58;;;21.90;99.90;;;;;;5019945;28;20469;-67
2023/09/24 10:02:36;;;;;;;3.25;0.70;;;22.00;99.90;;;;;;5021704;28;20650;-69
2023/09/24 10:05:06;;;;;;;1.92;0.88;;;22.00;99.90;;;;;;5020893;28;20225;-67
2023/09/24 10:07:37;;;;;;;3.05;0.85;;;21.90;99.90;;;;;;5018964;28;20282;-68
2023/09/24 10:10:42;;;;;;;1.10;0.60;;;22.00;99.90;;;;;;5018922;28;20232;-67
2023/09/24 10:13:42;;;;;;;1.95;1.00;;;22.20;99.90;;;;;;5019529;28;20219;-67
2023/09/24 10:16:30;;;;;;;1.40;0.93;;;22.20;99.90;;;;;;5020896;28;20319;-67
2023/09/24 10:19:00;;;;;;;1.15;0.95;;;22.40;99.90;;;;;;5017441;28;20208;-67
2023/09/24 10:21:30;;;;;;;0.98;0.93;;;22.60;99.90;;;;;;5021277;28;20840;-68
2023/09/24 10:23:58;;;;;;;1.98;1.23;;;22.90;99.90;;;;;;5020635;28;20220;-67
2023/09/24 10:26:49;;;;;;;1.50;1.20;;;23.20;99.90;;;;;;5020658;28;20299;-67
2023/09/24 10:29:18;;;;;;;1.05;0.95;;;23.00;99.90;;;;;;5017300;28;20310;-66
2023/09/24 10:32:13;;;;;;;1.17;1.05;;;23.20;99.90;;;;;;5021073;28;20204;-67
2023/09/24 10:35:09;;;;;;;0.98;0.90;;;23.10;99.90;;;;;;5020479;28;20205;-67
2023/09/24 10:38:02;;;;;;;1.30;1.10;;;23.20;99.90;;;;;;5017312;28;20220;-67
2023/09/24 10:40:32;;;;;;;2.47;1.05;;;23.40;99.90;;;;;;5020843;28;20220;-68
2023/09/24 10:43:15;;;;;;;2.58;1.15;;;23.30;99.90;;;;;;5020209;28;20218;-67
2023/09/24 10:45:44;;;;;;;2.58;1.58;;;23.30;99.90;;;;;;5020209;28;20220;-68
2023/09/24 10:48:12;;;;;;;1.33;1.05;;;23.50;99.90;;;;;;5017379;28;20259;-68
2023/09/24 10:50:42;;;;;;;2.03;1.50;;;23.50;99.90;;;;;;5020216;28;20781;-67
2023/09/24 10:53:10;;;;;;;0.80;0.80;;;23.20;99.90;;;;;;5020520;28;20220;-68
2023/09/24 10:55:43;;;;;;;3.03;1.38;;;23.20;99.90;;;;;;5020107;28;20572;-67
2023/09/24 10:58:25;;;;;;;2.00;1.13;;;23.60;99.90;;;;;;5017192;28;20239;-67
2023/09/24 11:00:53;;;;;;;4.53;1.27;;;24.00;99.90;;;;;;5019344;28;20244;-66
2023/09/24 11:03:22;;;;;;;1.42;0.95;;;24.20;99.90;;;;;;5019937;28;20219;-66
2023/09/24 11:05:52;;;;;;;1.92;1.30;;;24.20;99.80;;;;;;5020912;28;20252;-65
2023/09/24 11:08:26;;;;;;;2.55;1.35;;;24.30;99.90;;;;;;5017781;28;20310;-65
2023/09/24 11:10:55;;;;;;;3.13;1.85;;;24.10;99.90;;;;;;5018631;28;20236;-66
2023/09/24 11:13:25;;;;;;;1.33;1.02;;;24.10;99.80;;;;;;5020791;28;20211;-66
2023/09/24 11:15:54;;;;;;;1.00;0.80;;;24.00;99.90;;;;;;5020003;28;20282;-66
2023/09/24 11:18:22;;;;;;;3.55;2.17;;;24.10;99.90;;;;;;5016763;28;20697;-66
2023/09/24 11:20:52;;;;;;;1.17;0.95;;;24.20;99.30;;;;;;5019266;28;20232;-65
2023/09/24 11:23:20;;;;;;;4.90;1.48;;;24.20;99.20;;;;;;5019101;28;20208;-65
2023/09/24 11:25:49;;;;;;;1.65;1.48;;;24.60;99.30;;;;;;5019799;28;20676;-65
2023/09/24 11:28:19;;;;;;;3.53;1.75;;;24.90;99.10;;;;;;5016839;28;20208;-65
2023/09/24 11:30:50;;;;;;;2.60;1.20;;;24.90;98.40;;;;;;5018743;28;20231;-66
2023/09/24 11:33:20;;;;;;;1.77;0.77;;;25.10;97.80;;;;;;5020579;28;20208;-65
2023/09/24 11:35:50;;;;;;;1.00;0.63;;;25.30;97.10;;;;;;5020438;28;20213;-65
2023/09/24 11:38:28;;;;;;;2.28;0.75;;;25.20;96.50;;;;;;5016296;28;20632;-67
2023/09/24 11:41:07;;;;;;;1.35;0.70;;;25.20;96.00;;;;;;5019270;28;20315;-65
2023/09/24 11:43:36;;;;;;;1.10;0.80;;;25.50;96.40;;;;;;5019752;28;20211;-66
2023/09/24 11:46:17;;;;;;;0.80;0.60;;;25.60;96.10;;;;;;5018598;28;20359;-66
2023/09/24 11:48:46;;;;;;;0.80;0.73;;;25.70;96.50;;;;;;5015576;28;20267;-65
2023/09/24 11:51:15;;;;;;;1.35;0.80;;;25.60;96.10;;;;;;5019166;28;20664;-65
2023/09/24 11:53:43;;;;;;;0.73;0.68;;;25.10;96.10;;;;;;5019054;28;20208;-65
2023/09/24 11:56:12;;;;;;;1.17;0.70;;;25.10;95.40;;;;;;5018373;28;20200;-67
2023/09/24 11:58:39;;;;;;;0.90;0.70;;;25.00;94.90;;;;;;5014847;28;20226;-66
2023/09/24 12:01:09;;;;;;;1.92;0.70;;;24.60;94.40;;;;;;5018032;28;20286;-66
2023/09/24 12:03:39;;;;;;;1.10;1.00;;;24.70;95.10;;;;;;5019182;28;20292;-66
2023/09/24 12:06:08;;;;;;;1.65;0.70;;;25.00;95.40;;;;;;5019611;28;20228;-66
2023/09/24 12:08:36;;;;;;;0.65;0.57;;;25.20;93.90;;;;;;5016062;28;20204;-66
2023/09/24 12:11:04;;;;;;;0.80;0.73;;;25.30;94.10;;;;;;5018907;28;20232;-66
2023/09/24 12:13:32;;;;;;;0.85;0.55;;;25.60;94.00;;;;;;5019325;28;20208;-67
2023/09/24 12:16:00;;;;;;;0.95;0.70;;;25.20;94.80;;;;;;5018833;28;20577;-67
2023/09/24 12:18:28;;;;;;;0.80;0.60;;;25.40;94.10;;;;;;5015642;28;20209;-66
2023/09/24 12:20:57;;;;;;;0.70;0.50;;;25.40;93.00;;;;;;5017575;28;20860;-66
2023/09/24 12:23:26;;;;;;;1.58;0.93;;;25.50;92.60;;;;;;5019339;28;20215;-67
2023/09/24 12:25:54;;;;;;;2.45;0.60;;;25.60;93.10;;;;;;5019068;28;20236;-67
2023/09/24 12:28:22;;;;;;;0.70;0.60;;;25.60;90.90;;;;;;5015960;28;20200;-66
2023/09/24 12:30:50;;;;;;;0.63;0.50;;;25.80;91.10;;;;;;5018732;28;20496;-66
2023/09/24 12:33:18;;;;;;;1.60;1.00;;;26.30;90.10;;;;;;5018581;28;20208;-65
2023/09/24 12:35:46;;;;;;;0.70;0.65;;;26.30;90.10;;;;;;5018838;28;20205;-66
2023/09/24 12:38:15;;;;;;;0.80;0.60;;;26.30;90.10;;;;;;5015087;28;20208;-66
2023/09/24 12:40:43;;;;;;;1.35;0.60;;;26.50;90.10;;;;;;5018516;28;20235;-67
2023/09/24 12:43:12;;;;;;;0.85;0.60;;;26.60;88.40;;;;;;5018525;28;20205;-66
2023/09/24 12:45:40;;;;;;;1.63;0.60;;;26.60;89.10;;;;;;5019039;28;20258;-67
2023/09/24 12:48:08;;;;;;;1.23;0.63;;;26.60;89.90;;;;;;5014770;28;20230;-66
2023/09/24 12:50:36;;;;;;;1.73;0.82;;;26.80;89.30;;;;;;5018809;28;20236;-67
2023/09/24 12:53:05;;;;;;;0.80;0.70;;;27.20;88.10;;;;;;5019284;28;20231;-66
2023/09/24 12:55:34;;;;;;;1.00;0.60;;;27.20;88.40;;;;;;5018404;28;20208;-67
2023/09/24 12:58:02;;;;;;;0.60;0.50;;;27.10;86.20;;;;;;5014952;28;20600;-66
2023/09/24 13:00:30;;;;;;;0.70;0.65;;;27.20;86.10;;;;;;5018569;28;20240;-65